Ride Results

Terrific Tenterfield (29-05-2010)
Ride distance: 80.0 km

Outcomes - Terrific Tenterfield (29-05-2010)
Division No. of Entries Retired / DNE Completed Withdrawn Ineligible V/O Percentage Completed
HW 8 - 6 - - 2 75.00%
MW 18 - 16 - 1 1 88.89%
LW 12 - 10 1 - 1 83.33%
JN 5 - 5 - - - 100.00%
Totals 43 - 37 1 1 4 86.05%
Results - Terrific Tenterfield (29-05-2010)
No. Rider Horse Place Time Leg Speeds Total
Km/Hr
H/R bpm
Heavyweight
51 Ricky Petersen Ashraf Sparkling Polaris 1 (BC) 5:27:00 13.7, 15.7 14.68 34, 43, 50 (Avg:46)
80 Selwyn Nix Dunbar Mahadik 2 6:27:00 11.1, 14.0 12.40 24, 41, 44 (Avg:42)
73 Derek Armitage Burralga Jack Daniels 3 6:42:00 11.4, 12.4 11.94 36, 44, 38 (Avg:41)
53 Allan Caslick Razorback Hot Pepper 4 7:09:00 10.5, 11.8 11.19 43, 43, 46 (Avg:44)
77 Craig Renner Edenfels Naadam 5 7:18:00 10.8, 11.1 10.96 39, 50, 51 (Avg:50)
86 Marylou Locke Ally 6 7:47:00 10.8, 9.7 10.28 33, 47, 48 (Avg:47)
91 Will Standfield Stanpark Little Joe Lame L2 0:00:00 9.9, 61.5 - 38, 46, 60 (Avg:53)
56 Ben Newton Robert E Lee Lame L1 0:00:00 12.4 - 31, 40 (Avg:40)
Middleweight
70 Dean Chamberlain Annordean Sir Zac 1 5:32:00 12.4, 17.1 14.46 43, 49, 53 (Avg:51)
50 Stephen Gray Kasbah Kid 2 (BC) 5:34:00 13.7, 15.0 14.37 36, 40, 49 (Avg:44)
55 Nicole Urquhart Follydown Oskar 3 6:10:00 12.7, 13.1 12.97 29, 47, 40 (Avg:43)
57 Toni Appleton Halo Kazaam 4 6:13:00 11.5, 14.5 12.87 32, 44, 42 (Avg:43)
72 Trevor Copland CD Jimmy P 5 6:16:00 12.3, 13.1 12.77 31, 49, 49 (Avg:49)
58 Peter Kelly Kerewong Shelfyre 5 6:16:00 11.2, 14.7 12.77 34, 46, 42 (Avg:44)
62 Jim Lillyman Meadowbrook Rhapsody 7 6:20:00 12.3, 12.9 12.63 30, 41, 42 (Avg:41)
81 Joyce Corbett Reeflex 8 6:23:00 11.9, 13.1 12.53 35, 47, 43 (Avg:45)
61 Sabrina Stephens Mataranka Diamonds 8 6:23:00 12.3, 12.6 12.53 38, 54, 51 (Avg:52)
84 Damien Keys Elfar Viper Fire 10 6:27:00 11.7, 13.1 12.40 33, 44, 50 (Avg:47)
79 Derryn Nix Rowallan Rufous 10 6:27:00 11.1, 14.0 12.40 35, 46, 51 (Avg:48)
76 Tami Parnell Churinga Desire 12 6:34:00 11.4, 13.0 12.18 39, 45, 46 (Avg:45)
88 Pierre DeWit Capers te 13 7:17:00 9.5, 12.9 10.98 42, 46, 51 (Avg:48)
89 Rhys Rayner Stanpark Ruby 14 7:22:00 9.9, 11.9 10.86 35, 44, 51 (Avg:47)
87 Bob Locke Nyora Legacy 15 7:47:00 10.8, 9.7 10.28 32, 35, 36 (Avg:35)
94 Judith Burton Alcienne Earl Marak 16 8:16:00 9.6, 9.7 9.68 42, 45, 57 (Avg:51)
68 Wayne McKinnon Dunbar Lexus Lame L2 0:00:00 12.3, 13.1 - 39, 40, 46 (Avg:43)
90 Tony Standfield Stanpark Rupert Disqualified L1 0:00:00 7.7 - 37, 42 (Avg:42)
Lightweight
74 Jessica Kirsch Rio Sansha 1 (BC) 5:27:00 12.9, 16.9 14.68 40, 47, 47 (Avg:47)
71 Annette Chamberlain Annordean Lady Lilly 2 5:32:00 12.4, 17.1 14.46 41, 48, 52 (Avg:50)
54 Tamara Prentice Shiraz 3 6:14:00 12.4, 13.2 12.83 39, 47, 45 (Avg:46)
66 Jackie Parsons Dunwingeri Nova 4 6:28:00 11.5, 13.3 12.37 31, 48, 46 (Avg:47)
67 Lynn Coles Pinedene Robbie 5 6:33:00 11.2, 13.4 12.21 34, 45, 41 (Avg:43)
75 Jennifer Annetts Churinga Goldfire 6 6:34:00 11.4, 13.0 12.18 30, 46, 49 (Avg:47)
92 Jessica Aistrope Moondarra Aragon 7 7:17:00 9.5, 12.9 10.98 40, 44, 47 (Avg:45)
82 Samantha Mijik Natham Park A Drenalin 8 7:22:00 9.7, 12.2 10.86 35, 49, 54 (Avg:51)
63 Tanya Stoffel Stallone 9 7:30:00 9.7, 11.7 10.67 35, 37, 44 (Avg:40)
52 Julia Morgillo Woodbourne Bikini 10 8:16:00 9.6, 9.7 9.68 31, 39, 44 (Avg:41)
78 Kim Ruehe Allyndah Silver Soverign Heart Rate L2 0:00:00 11.7, 11.2 - 34, 47, 62 (Avg:54)
60 Megan Matters Ramalea Laila Withdrawn L1 0:00:00 - - 35, 42 (Avg:42)
Junior
93 Billie Standfield Stanpark Meg 1 (BC) 6:13:00 11.4, 14.6 12.87 39, 47, 54 (Avg:50)
65 Jasmine Shields Woodbourne Betty 2 6:16:00 11.9, 13.7 12.77 27, 44, 50 (Avg:47)
85 Dylan Keys Elfar Sword O'Fire 3 6:27:00 11.7, 13.1 12.40 31, 38, 43 (Avg:40)
83 Stephanie Mijic Maf-Ue Khaio 4 7:22:00 9.7, 12.2 10.86 40, 46, 45 (Avg:45)
64 Bec Hall Rotan Dolly Girl 5 7:30:00 9.7, 11.7 10.67 37, 43, 52 (Avg:47)